Aeroporto :
LOGIN :

Iscrizione | Disclaimer

   EN    FR    IT 

 










Sommario :    VFR   VFR Marginale   IFR   IFR Intensivo   IFR Molto Intensivo
Visibilità : 
Base nubi : 
>= 8 km
>= 3000ft
5 / 8 km
1000 / 3000 ft
1500m / 5 km
500 / 1000 ft
800 / 1500m
200 / 500 ft
< 800m
< 200 ft
Simboli :   Temporali  Nebbia  Neve Forte  Precipitazioni Forti  Vento > 20 kt
SIGMETs :   Varie  Temporali  Ghiacco  Turbolenza  Onda orograficha  Ceneri Vulcaniche







- Altitudine del aeroporto : 286 ft
- Codice IATA : TRF


ENTO - Sandefjord , Torp

ULTIMO METAR :
  • 190120Z AUTO 31008KT 9999 NCD M00/M08 Q1016

METARs OBSOLETI :
  • 190050Z AUTO 29007KT 9999 NCD M00/M08 Q1015
  • 190020Z AUTO 30006KT 9999 NCD 00/M08 Q1015
  • 182350Z AUTO 28006KT 9999 NCD 00/M08 Q1015
  • 182320Z AUTO 28005KT 9999 NCD 00/M08 Q1014
  • 182250Z AUTO 29007KT 9999 NCD 01/M08 Q1014
  • 182220Z 33006KT CAVOK 02/M09 Q1013

TAF TAF ENTO
Valido dal 19 a 00 ore il 20 a 00 ore UTC


1900/1924 28008KT CAVOK
BECMG 1912/1914 22012KT
Nessun NOTAM noto per questo aeroporto.



MetMap, La meteo Aeronautica in un colpo d'occhio ! - Copyright ORBIFLY Dicembre 2007 - Disclaimer

ORBIFLY MET'MAP TEAM :

Programmazione e sviluppo : Alexandra Zaïnal
Concezione e sviluppo : Baudouin d'Aumeries
Co-Programmazione e sviluppo : Marc-Olivier Méhu
Supporto tecnico e logistico : Manuel Goepfert
Aiuto per la traduzione : Arnaldo La Scala

Contatto : metmap@orbifly.com




FONTI E CREDITI :

   NOAA